Sycamore Valley, Ohio
Current Conditions -  °F | °C
As of 11:53 AM on Monday 22 Dec 2014 (Local Time) from KPKB Reporting Station
Clear Clear  
Wind Chill: 50°   Ceiling: Unl
Heat Index: 50°   Visibility: 10mi
Dew Point: 34°   Wind: 7mph
Humidity: 54%   Direction: 180°S
Pressure: 30.05"   Gusts: NA
Location:  39.67°N, 81.24°W
Report Text: KPKB 221653Z 18006KT 10SM CLR 10/01 A3005 RMK AO2 SLP181 T01000011
Loading
Personal Weather Stations






























Interactive Weather Map New forecast layout! Learn more

10-Day Weather Forecast

Advertisements
Track Severe Weather on mobile